Time;durP1;ratioP1;P1;durP2;ratioP2;P2;SDS_P1;SDS_P2;PMS_P1;PMS_P2;Temp;Humidity;BMP_temperature;BMP_pressure;BME280_temperature;BME280_humidity;BME280_pressure;Samples;Min_cycle;Max_cycle;Signal;HPM_P1;HPM_P2
2022/09/09 00:01:46;;;;;;;3.13;2.30;;;16.80;99.90;;;;;;5062938;28;25064;-74
2022/09/09 00:04:31;;;;;;;7.32;2.20;;;16.80;99.90;;;;;;5063087;28;25100;-74
2022/09/09 00:07:23;;;;;;;8.52;2.50;;;16.70;99.90;;;;;;5078026;28;25064;-73
2022/09/09 00:10:08;;;;;;;4.47;2.47;;;16.70;99.90;;;;;;5079901;28;25065;-75
2022/09/09 00:13:00;;;;;;;3.35;1.70;;;16.80;99.90;;;;;;5074861;28;25068;-74
2022/09/09 00:15:37;;;;;;;6.07;2.50;;;16.70;99.90;;;;;;5085373;28;25071;-74
2022/09/09 00:18:11;;;;;;;5.13;2.40;;;16.70;99.90;;;;;;5087192;28;25070;-75
2022/09/09 00:20:52;;;;;;;7.68;2.95;;;16.60;99.90;;;;;;5097015;28;25043;-75
2022/09/09 00:23:39;;;;;;;5.43;2.97;;;16.70;99.90;;;;;;5096096;28;25072;-76
2022/09/09 00:26:27;;;;;;;4.80;2.30;;;16.60;99.90;;;;;;5074411;28;25057;-76
2022/09/09 00:29:16;;;;;;;5.75;2.53;;;16.70;99.90;;;;;;5080228;28;25079;-76
2022/09/09 00:31:42;;;;;;;5.13;2.80;;;16.70;99.90;;;;;;5062157;28;25063;-75
2022/09/09 00:34:18;;;;;;;6.53;2.80;;;16.70;99.90;;;;;;5057644;28;25057;-76
2022/09/09 00:36:45;;;;;;;7.20;3.53;;;16.70;99.90;;;;;;5057461;28;25073;-76
2022/09/09 00:39:33;;;;;;;6.35;2.38;;;16.70;99.90;;;;;;5071027;28;25063;-74
2022/09/09 00:42:13;;;;;;;8.02;2.83;;;16.80;99.90;;;;;;5065565;28;25065;-75
2022/09/09 00:44:49;;;;;;;6.35;2.97;;;16.70;99.90;;;;;;5075012;28;25078;-76
2022/09/09 00:47:20;;;;;;;5.35;2.70;;;16.70;99.90;;;;;;5073548;28;25069;-75
2022/09/09 00:49:57;;;;;;;5.18;3.15;;;16.60;99.90;;;;;;5062565;28;25043;-75
2022/09/09 00:52:26;;;;;;;7.85;3.20;;;16.60;99.90;;;;;;5063497;28;25179;-74
2022/09/09 00:55:02;;;;;;;4.65;3.10;;;16.70;99.90;;;;;;5063914;28;25077;-75
2022/09/09 00:57:33;;;;;;;6.03;3.20;;;16.60;99.90;;;;;;5068030;28;25065;-75
2022/09/09 01:00:43;;;;;;;7.55;3.70;;;16.60;99.90;;;;;;5066866;28;25094;-75
2022/09/09 01:03:27;;;;;;;6.18;3.50;;;16.70;99.90;;;;;;5062879;28;25077;-76
2022/09/09 01:05:53;;;;;;;6.97;3.50;;;16.70;99.90;;;;;;5086209;28;25059;-76
2022/09/09 01:08:38;;;;;;;5.35;3.42;;;16.70;99.90;;;;;;5065943;28;25126;-75
2022/09/09 01:11:04;;;;;;;10.70;3.67;;;16.70;99.90;;;;;;5067856;28;25085;-75
2022/09/09 01:13:36;;;;;;;9.52;3.67;;;16.70;99.90;;;;;;5064619;28;25059;-75
2022/09/09 01:16:05;;;;;;;8.63;4.20;;;16.60;99.90;;;;;;5061202;28;25102;-75
2022/09/09 01:18:37;;;;;;;6.90;3.60;;;16.60;99.90;;;;;;5054261;28;25074;-75
2022/09/09 01:21:38;;;;;;;9.55;3.92;;;16.70;99.90;;;;;;5065191;28;25073;-75
2022/09/09 01:24:19;;;;;;;8.20;4.10;;;16.70;99.90;;;;;;5026867;28;25079;-75
2022/09/09 01:26:51;;;;;;;8.00;4.07;;;16.80;99.90;;;;;;5060537;28;25084;-77
2022/09/09 01:29:18;;;;;;;9.68;4.55;;;16.70;99.90;;;;;;5059615;28;25186;-75
2022/09/09 01:32:17;;;;;;;7.03;4.18;;;16.70;99.90;;;;;;5056434;28;25073;-76
2022/09/09 01:34:42;;;;;;;7.50;4.72;;;16.70;99.90;;;;;;5058463;28;25074;-76
2022/09/09 01:37:11;;;;;;;5.90;4.07;;;16.80;99.90;;;;;;5053510;28;25076;-75
2022/09/09 01:39:41;;;;;;;10.20;4.28;;;16.80;99.90;;;;;;5067035;28;25099;-77
2022/09/09 01:42:10;;;;;;;10.10;4.50;;;16.70;99.90;;;;;;5067455;28;25054;-76
2022/09/09 01:44:37;;;;;;;9.63;4.93;;;16.60;99.90;;;;;;5068230;28;25047;-74
2022/09/09 01:47:04;;;;;;;11.68;5.25;;;16.50;99.90;;;;;;5059506;28;25067;-74
2022/09/09 01:49:30;;;;;;;11.20;5.32;;;16.50;99.90;;;;;;5067211;28;25052;-76
2022/09/09 01:51:56;;;;;;;6.72;4.63;;;16.50;99.90;;;;;;5060144;28;25069;-75
2022/09/09 01:54:26;;;;;;;11.02;4.25;;;16.60;99.90;;;;;;5061121;28;25071;-74
2022/09/09 01:57:06;;;;;;;6.82;4.68;;;16.60;99.90;;;;;;5059812;28;25060;-76
2022/09/09 01:59:44;;;;;;;8.20;4.38;;;16.50;99.90;;;;;;5064317;28;25152;-76
2022/09/09 02:02:31;;;;;;;10.27;4.85;;;16.50;99.90;;;;;;5077496;28;25086;-74
2022/09/09 02:05:09;;;;;;;10.18;4.47;;;16.50;99.90;;;;;;5063765;28;25087;-75
2022/09/09 02:07:46;;;;;;;10.38;5.07;;;16.60;99.90;;;;;;5068359;28;25120;-77
2022/09/09 02:10:22;;;;;;;6.53;4.50;;;16.50;99.90;;;;;;5062501;28;25079;-76
2022/09/09 02:12:53;;;;;;;8.07;4.18;;;16.50;99.90;;;;;;5055800;28;25059;-74
2022/09/09 02:15:38;;;;;;;8.98;4.53;;;16.60;99.90;;;;;;5057201;28;25053;-75
2022/09/09 02:18:08;;;;;;;9.95;4.55;;;16.60;99.90;;;;;;5063819;28;25056;-75
2022/09/09 02:20:37;;;;;;;8.02;4.60;;;16.60;99.90;;;;;;5063594;28;25126;-77
2022/09/09 02:23:04;;;;;;;9.90;4.40;;;16.50;99.90;;;;;;5070359;28;25057;-77
2022/09/09 02:25:30;;;;;;;9.55;4.38;;;16.40;99.90;;;;;;5072104;28;25158;-75
2022/09/09 02:27:58;;;;;;;8.10;3.92;;;16.40;99.90;;;;;;5072102;28;25051;-76
2022/09/09 02:30:24;;;;;;;11.45;3.97;;;16.50;99.90;;;;;;5060951;28;25085;-75
2022/09/09 02:32:56;;;;;;;7.82;4.53;;;16.50;99.90;;;;;;5074327;28;25048;-76
2022/09/09 02:35:24;;;;;;;5.03;3.53;;;16.50;99.90;;;;;;5065516;28;25079;-75
2022/09/09 02:37:52;;;;;;;9.77;3.58;;;16.40;99.90;;;;;;5073689;28;25049;-75
2022/09/09 02:40:18;;;;;;;7.97;3.75;;;16.40;99.90;;;;;;5074120;28;25057;-75
2022/09/09 02:42:46;;;;;;;5.47;3.65;;;16.40;99.90;;;;;;5070671;28;25065;-76
2022/09/09 02:45:16;;;;;;;11.05;3.38;;;16.40;99.90;;;;;;5065561;28;25071;-76
2022/09/09 02:47:48;;;;;;;9.27;3.75;;;16.40;99.90;;;;;;5063472;28;25063;-76
2022/09/09 02:50:13;;;;;;;10.95;3.95;;;16.50;99.90;;;;;;5068673;28;25065;-76
2022/09/09 02:52:46;;;;;;;8.32;3.70;;;16.50;99.90;;;;;;5079835;28;25072;-75
2022/09/09 02:55:22;;;;;;;4.20;2.78;;;16.50;99.90;;;;;;5091669;28;25156;-76
2022/09/09 02:57:49;;;;;;;8.02;3.97;;;16.50;99.90;;;;;;5065192;28;25085;-75
2022/09/09 03:00:15;;;;;;;7.47;2.70;;;16.50;99.90;;;;;;5079356;28;25100;-76
2022/09/09 03:02:42;;;;;;;7.80;2.90;;;16.50;99.90;;;;;;5083869;28;25076;-75
2022/09/09 03:05:08;;;;;;;6.80;2.20;;;16.40;99.90;;;;;;5089914;28;25061;-75
2022/09/09 03:07:33;;;;;;;8.55;2.78;;;16.30;99.90;;;;;;5082159;28;25057;-77
2022/09/09 03:09:59;;;;;;;6.13;2.10;;;16.30;99.90;;;;;;5067059;28;25081;-74
2022/09/09 03:12:24;;;;;;;10.48;2.28;;;16.30;99.90;;;;;;5059230;28;25057;-75
2022/09/09 03:14:50;;;;;;;5.35;2.22;;;16.30;99.90;;;;;;5064849;28;25155;-76
2022/09/09 03:17:16;;;;;;;5.75;2.03;;;16.20;99.90;;;;;;5057511;28;25150;-76
2022/09/09 03:19:42;;;;;;;5.43;2.30;;;16.20;99.90;;;;;;5066146;28;25142;-76
2022/09/09 03:22:10;;;;;;;7.32;2.05;;;16.20;99.90;;;;;;5063781;28;25059;-75
2022/09/09 03:24:35;;;;;;;4.50;2.17;;;16.20;99.90;;;;;;5052041;28;25082;-75
2022/09/09 03:27:01;;;;;;;3.28;2.08;;;16.10;99.90;;;;;;5057395;28;25089;-76
2022/09/09 03:29:26;;;;;;;4.85;2.20;;;16.20;99.90;;;;;;5064992;28;25104;-77
2022/09/09 03:31:52;;;;;;;6.05;2.40;;;16.20;99.90;;;;;;5053522;28;25076;-76
2022/09/09 03:34:17;;;;;;;5.93;2.00;;;16.20;99.90;;;;;;5057151;28;25058;-75
2022/09/09 03:36:43;;;;;;;5.93;2.33;;;16.20;99.90;;;;;;5056058;28;25076;-77
2022/09/09 03:39:09;;;;;;;8.38;2.03;;;16.20;99.90;;;;;;5056694;28;25062;-75
2022/09/09 03:41:34;;;;;;;8.07;2.10;;;16.20;99.90;;;;;;5062591;28;25072;-76
2022/09/09 03:44:00;;;;;;;4.95;1.90;;;16.10;99.90;;;;;;5053381;28;25073;-75
2022/09/09 03:46:25;;;;;;;8.43;2.08;;;16.10;99.90;;;;;;5057879;28;25067;-75
2022/09/09 03:48:54;;;;;;;5.30;2.05;;;16.10;99.90;;;;;;5065384;28;25074;-76
2022/09/09 03:51:21;;;;;;;4.80;2.10;;;16.20;99.90;;;;;;5062292;28;25112;-74
2022/09/09 03:53:47;;;;;;;7.20;2.72;;;16.20;99.90;;;;;;5058618;28;25055;-75
2022/09/09 03:56:13;;;;;;;5.20;2.10;;;16.20;99.90;;;;;;5068560;28;25156;-75
2022/09/09 03:58:39;;;;;;;7.85;2.38;;;16.20;99.90;;;;;;5064014;28;25098;-76
2022/09/09 04:01:08;;;;;;;5.57;2.15;;;16.20;99.90;;;;;;5059680;28;25081;-76
2022/09/09 04:03:34;;;;;;;4.35;2.22;;;16.10;99.90;;;;;;5055993;28;25082;-76
2022/09/09 04:06:03;;;;;;;5.45;2.42;;;16.10;99.90;;;;;;5054624;28;25075;-77
2022/09/09 04:08:31;;;;;;;6.25;2.30;;;16.20;99.90;;;;;;5052027;28;25052;-77
2022/09/09 04:10:57;;;;;;;5.40;2.83;;;16.10;99.90;;;;;;5055416;28;25067;-77
2022/09/09 04:13:24;;;;;;;5.18;2.30;;;16.20;99.90;;;;;;5053533;28;25071;-76
2022/09/09 04:15:57;;;;;;;4.50;1.92;;;16.20;99.90;;;;;;5053932;28;25081;-77
2022/09/09 04:18:24;;;;;;;8.02;2.47;;;16.20;99.90;;;;;;5051782;28;25066;-77
2022/09/09 04:20:51;;;;;;;4.63;2.05;;;16.20;99.90;;;;;;5061608;28;25079;-76
2022/09/09 04:23:18;;;;;;;7.47;1.98;;;16.20;99.90;;;;;;5048133;28;25054;-76
2022/09/09 04:25:49;;;;;;;11.18;2.47;;;16.20;99.90;;;;;;5056750;28;25074;-76
2022/09/09 04:28:16;;;;;;;6.95;2.17;;;16.30;99.90;;;;;;5068427;28;25095;-77
2022/09/09 04:30:42;;;;;;;7.00;2.83;;;16.30;99.90;;;;;;5060638;28;25134;-76
2022/09/09 04:33:09;;;;;;;4.38;1.83;;;16.20;99.90;;;;;;5064647;28;25069;-76
2022/09/09 04:35:35;;;;;;;7.53;1.90;;;16.30;99.90;;;;;;5053870;28;25051;-76
2022/09/09 04:38:02;;;;;;;10.77;2.25;;;16.20;99.90;;;;;;5058469;28;25068;-75
2022/09/09 04:40:29;;;;;;;3.22;1.92;;;16.30;99.90;;;;;;5052901;28;25053;-76
2022/09/09 04:42:55;;;;;;;6.55;2.00;;;16.30;99.90;;;;;;5052605;28;25133;-77
2022/09/09 04:45:20;;;;;;;7.78;2.35;;;16.30;99.90;;;;;;5063546;28;25069;-74
2022/09/09 04:47:46;;;;;;;5.43;1.77;;;16.30;99.90;;;;;;5060927;28;25052;-75
2022/09/09 04:50:12;;;;;;;10.55;2.20;;;16.40;99.90;;;;;;5058312;28;25131;-76
2022/09/09 04:52:37;;;;;;;9.23;2.45;;;16.50;99.90;;;;;;5061991;28;25090;-76
2022/09/09 04:55:04;;;;;;;10.50;2.30;;;16.50;99.90;;;;;;5056360;28;25180;-77
2022/09/09 04:57:31;;;;;;;8.15;2.33;;;16.50;99.90;;;;;;5052204;28;25095;-77
2022/09/09 04:59:57;;;;;;;6.53;2.35;;;16.60;99.90;;;;;;5062578;28;25075;-77
2022/09/09 05:02:23;;;;;;;8.10;2.00;;;16.50;99.90;;;;;;5061058;28;25076;-77
2022/09/09 05:04:49;;;;;;;6.55;2.33;;;16.50;99.90;;;;;;5060491;28;25158;-78
2022/09/09 05:07:15;;;;;;;7.68;2.35;;;16.50;99.90;;;;;;5059836;28;25065;-78
2022/09/09 05:09:40;;;;;;;9.60;2.60;;;16.50;99.90;;;;;;5055924;28;25058;-77
2022/09/09 05:12:06;;;;;;;9.00;2.20;;;16.60;99.90;;;;;;5059251;28;25146;-77
2022/09/09 05:14:32;;;;;;;12.82;2.67;;;16.50;99.90;;;;;;5062620;28;25051;-78
2022/09/09 05:16:57;;;;;;;5.50;2.05;;;16.60;99.90;;;;;;5058553;28;25084;-76
2022/09/09 05:19:24;;;;;;;5.43;2.10;;;16.50;99.90;;;;;;5081299;28;25076;-79
2022/09/09 05:21:50;;;;;;;6.03;2.00;;;16.50;99.90;;;;;;5053117;28;25101;-77
2022/09/09 05:24:16;;;;;;;12.85;2.97;;;16.60;99.90;;;;;;5053696;28;25097;-78
2022/09/09 05:26:43;;;;;;;4.88;1.90;;;16.60;99.90;;;;;;5057060;28;25157;-75
2022/09/09 05:29:08;;;;;;;6.28;2.20;;;16.50;99.90;;;;;;5057654;28;25058;-76
2022/09/09 05:31:34;;;;;;;5.20;1.80;;;16.50;99.90;;;;;;5056952;28;25089;-78
2022/09/09 05:34:00;;;;;;;4.30;2.45;;;16.60;99.90;;;;;;5058025;28;25094;-75
2022/09/09 05:36:25;;;;;;;6.57;2.30;;;16.60;99.90;;;;;;5053363;28;25064;-78
2022/09/09 05:38:53;;;;;;;14.98;4.38;;;16.50;99.90;;;;;;5060688;28;25084;-77
2022/09/09 05:41:19;;;;;;;10.32;3.85;;;16.50;99.90;;;;;;5058245;28;25085;-77
2022/09/09 05:43:46;;;;;;;12.20;3.97;;;16.50;99.90;;;;;;5056801;28;25097;-76
2022/09/09 05:46:15;;;;;;;8.93;2.08;;;16.50;99.90;;;;;;5053317;28;25050;-75
2022/09/09 05:48:50;;;;;;;7.75;2.03;;;16.50;99.90;;;;;;5055495;28;25099;-76
2022/09/09 05:51:21;;;;;;;6.15;2.15;;;16.50;99.90;;;;;;5066512;28;25057;-78
2022/09/09 05:53:48;;;;;;;9.00;2.72;;;16.60;99.90;;;;;;5064592;28;25068;-76
2022/09/09 05:56:20;;;;;;;8.20;2.63;;;16.60;99.90;;;;;;5052457;28;25168;-75
2022/09/09 05:58:49;;;;;;;9.43;2.30;;;16.70;99.90;;;;;;5060995;28;25077;-76
2022/09/09 06:01:19;;;;;;;8.90;2.08;;;16.70;99.90;;;;;;5069425;28;25062;-76
2022/09/09 06:03:46;;;;;;;11.27;3.30;;;16.70;99.90;;;;;;5060182;28;25102;-75
2022/09/09 06:06:14;;;;;;;6.55;2.40;;;16.80;99.90;;;;;;5060959;28;25136;-76
2022/09/09 06:08:45;;;;;;;8.45;2.50;;;16.80;99.90;;;;;;5056265;28;25172;-77
2022/09/09 06:11:20;;;;;;;11.30;2.63;;;16.80;99.90;;;;;;5058696;28;25040;-77
2022/09/09 06:13:47;;;;;;;12.20;2.42;;;16.90;99.90;;;;;;5063702;28;25070;-75
2022/09/09 06:16:15;;;;;;;6.80;2.00;;;17.00;99.90;;;;;;5056663;28;25046;-76
2022/09/09 06:18:42;;;;;;;9.68;2.67;;;17.00;99.90;;;;;;5049720;28;25059;-76
2022/09/09 06:21:20;;;;;;;8.45;2.17;;;17.00;99.90;;;;;;5068627;28;25087;-76
2022/09/09 06:23:46;;;;;;;11.32;2.92;;;17.10;99.90;;;;;;5057775;28;25058;-78
2022/09/09 06:26:17;;;;;;;7.65;2.58;;;17.10;99.90;;;;;;5063983;28;25050;-75
2022/09/09 06:28:42;;;;;;;8.95;2.40;;;17.20;99.90;;;;;;5068013;28;25147;-78
2022/09/09 06:31:11;;;;;;;13.75;3.22;;;17.20;99.90;;;;;;5056068;28;25065;-77
2022/09/09 06:33:41;;;;;;;8.95;2.40;;;17.20;99.90;;;;;;5058924;28;25121;-76
2022/09/09 06:36:15;;;;;;;7.45;2.45;;;17.10;99.90;;;;;;5055002;28;25064;-76
2022/09/09 06:38:42;;;;;;;10.30;2.50;;;17.20;99.90;;;;;;5063553;28;25059;-75
2022/09/09 06:41:08;;;;;;;7.63;2.00;;;17.20;99.90;;;;;;5067988;28;25038;-76
2022/09/09 06:43:34;;;;;;;12.95;2.22;;;17.20;99.90;;;;;;5050253;28;25065;-76
2022/09/09 06:46:13;;;;;;;3.85;1.60;;;17.20;99.90;;;;;;5051485;28;25067;-75
2022/09/09 06:48:42;;;;;;;9.32;2.58;;;17.30;99.90;;;;;;5067126;28;25055;-77
2022/09/09 06:51:12;;;;;;;8.02;2.28;;;17.30;99.90;;;;;;5067156;28;25101;-78
2022/09/09 06:53:39;;;;;;;6.15;2.45;;;17.50;99.90;;;;;;5058052;28;25063;-75
2022/09/09 06:56:11;;;;;;;10.20;2.42;;;17.40;99.90;;;;;;5064372;28;25153;-76
2022/09/09 06:58:43;;;;;;;13.43;3.40;;;17.40;99.90;;;;;;5062659;28;25095;-78
2022/09/09 07:01:14;;;;;;;7.00;2.72;;;17.50;99.90;;;;;;5065298;28;25068;-78
2022/09/09 07:03:41;;;;;;;7.50;2.63;;;17.40;99.90;;;;;;5057748;28;25073;-76
2022/09/09 07:06:08;;;;;;;8.60;2.67;;;17.50;99.90;;;;;;5056486;28;25092;-75
2022/09/09 07:08:34;;;;;;;7.75;2.17;;;17.40;99.90;;;;;;5057179;28;25055;-75
2022/09/09 07:11:09;;;;;;;6.60;2.47;;;17.40;99.90;;;;;;5055087;28;25089;-76
2022/09/09 07:13:35;;;;;;;7.45;2.45;;;17.30;99.90;;;;;;5053093;28;25154;-77
2022/09/09 07:16:27;;;;;;;10.40;2.92;;;17.20;99.90;;;;;;5057758;28;25098;-76
2022/09/09 07:18:57;;;;;;;10.55;2.65;;;17.30;99.90;;;;;;5077460;28;25075;-74
2022/09/09 07:21:25;;;;;;;8.98;2.17;;;17.30;99.90;;;;;;5080235;28;25057;-78
2022/09/09 07:23:51;;;;;;;4.18;2.17;;;17.30;99.90;;;;;;5079845;28;25099;-75
2022/09/09 07:26:21;;;;;;;5.20;2.50;;;17.30;99.90;;;;;;5078390;28;25144;-77
2022/09/09 07:28:48;;;;;;;8.27;2.13;;;17.30;99.90;;;;;;5069384;28;25214;-77
2022/09/09 07:31:16;;;;;;;10.35;2.55;;;17.40;99.90;;;;;;5058096;28;25080;-75
2022/09/09 07:33:42;;;;;;;8.38;2.30;;;17.50;99.90;;;;;;5055180;28;25065;-75
2022/09/09 07:36:14;;;;;;;7.97;2.53;;;17.50;99.90;;;;;;5060543;28;25095;-75
2022/09/09 07:38:43;;;;;;;9.60;2.42;;;17.40;99.90;;;;;;5055559;28;25083;-74
2022/09/09 07:41:13;;;;;;;8.52;2.00;;;17.30;99.90;;;;;;5051187;28;25052;-75
2022/09/09 07:43:40;;;;;;;4.38;1.85;;;17.40;99.90;;;;;;5050819;28;25150;-75
2022/09/09 07:46:06;;;;;;;7.68;2.10;;;17.40;99.90;;;;;;5046494;28;25130;-75
2022/09/09 07:48:32;;;;;;;10.35;2.85;;;17.30;99.90;;;;;;5047374;28;25061;-75
2022/09/09 07:51:10;;;;;;;8.10;2.63;;;17.30;99.90;;;;;;5060266;28;25042;-73
2022/09/09 07:53:36;;;;;;;10.50;2.65;;;17.10;99.90;;;;;;5064360;28;26195;-76
2022/09/09 07:56:07;;;;;;;11.48;2.55;;;17.10;99.90;;;;;;5061983;28;25135;-75
2022/09/09 07:58:33;;;;;;;15.05;2.20;;;17.10;99.90;;;;;;5062065;28;25089;-75
2022/09/09 08:00:58;;;;;;;3.05;1.90;;;17.00;99.90;;;;;;5055046;28;25094;-74
2022/09/09 08:03:24;;;;;;;7.00;2.53;;;17.00;99.90;;;;;;5055658;28;25062;-76
2022/09/09 08:05:50;;;;;;;10.18;2.75;;;17.00;99.90;;;;;;5061777;28;25081;-75
2022/09/09 08:08:16;;;;;;;7.72;2.28;;;17.10;99.90;;;;;;5047174;28;25181;-76
2022/09/09 08:10:42;;;;;;;5.93;2.08;;;17.30;99.90;;;;;;5053761;28;25053;-73
2022/09/09 08:13:09;;;;;;;8.55;2.30;;;17.30;99.90;;;;;;5053014;28;25124;-75
2022/09/09 08:15:34;;;;;;;6.30;1.65;;;17.40;99.90;;;;;;5046446;28;25126;-75
2022/09/09 08:18:00;;;;;;;10.77;2.83;;;17.60;99.90;;;;;;5054700;28;25057;-74
2022/09/09 08:20:25;;;;;;;9.80;2.60;;;17.60;99.90;;;;;;5061944;28;25150;-74
2022/09/09 08:22:51;;;;;;;7.38;2.40;;;17.60;99.90;;;;;;5057185;28;25102;-74
2022/09/09 08:25:16;;;;;;;8.20;2.65;;;17.60;99.90;;;;;;5052934;28;25073;-73
2022/09/09 08:27:42;;;;;;;8.90;2.55;;;17.60;99.90;;;;;;5058872;28;25061;-72
2022/09/09 08:30:09;;;;;;;8.77;2.67;;;17.60;99.90;;;;;;5060837;28;25076;-76
2022/09/09 08:32:35;;;;;;;16.73;3.17;;;17.60;99.90;;;;;;5069656;28;25082;-77
2022/09/09 08:35:00;;;;;;;28.95;7.93;;;17.40;99.90;;;;;;5083687;28;25070;-75
2022/09/09 08:37:26;;;;;;;8.15;2.25;;;17.40;99.90;;;;;;5074999;28;25060;-75
2022/09/09 08:39:51;;;;;;;8.80;2.30;;;17.40;99.90;;;;;;5064029;28;25168;-73
2022/09/09 08:42:28;;;;;;;7.50;2.30;;;17.40;99.90;;;;;;5063038;28;25055;-73
2022/09/09 08:45:00;;;;;;;11.80;2.10;;;17.50;99.90;;;;;;5063734;28;25096;-74
2022/09/09 08:47:31;;;;;;;7.38;2.50;;;17.50;99.90;;;;;;5078019;28;25057;-75
2022/09/09 08:50:15;;;;;;;9.35;2.53;;;17.50;99.90;;;;;;5076010;28;25178;-74
2022/09/09 08:52:52;;;;;;;2.55;1.63;;;17.50;99.90;;;;;;5066986;28;25045;-74
2022/09/09 08:55:28;;;;;;;6.18;1.95;;;17.40;99.90;;;;;;5057344;28;25161;-73
2022/09/09 08:57:56;;;;;;;6.43;2.05;;;17.40;99.90;;;;;;5050939;28;25072;-74
2022/09/09 09:00:25;;;;;;;11.15;2.00;;;17.50;99.90;;;;;;5061293;28;25069;-73
2022/09/09 09:03:05;;;;;;;5.35;2.30;;;17.60;99.90;;;;;;5051813;28;25083;-74
2022/09/09 09:06:01;;;;;;;8.60;2.00;;;17.60;99.90;;;;;;5053812;28;25184;-73
2022/09/09 09:08:34;;;;;;;4.50;1.88;;;17.50;99.90;;;;;;5045650;28;25057;-75
2022/09/09 09:11:01;;;;;;;10.43;2.35;;;17.50;99.90;;;;;;5047403;28;25070;-74
2022/09/09 09:13:46;;;;;;;12.00;2.75;;;17.50;99.90;;;;;;5049975;28;25062;-74
2022/09/09 09:16:25;;;;;;;12.02;2.17;;;17.50;99.90;;;;;;5060214;28;25066;-73
2022/09/09 09:18:52;;;;;;;4.55;1.80;;;17.50;99.90;;;;;;5055765;28;25143;-73
2022/09/09 09:21:39;;;;;;;9.40;3.17;;;17.50;99.90;;;;;;5060038;28;25078;-73
2022/09/09 09:24:14;;;;;;;5.05;2.42;;;17.50;99.90;;;;;;5054187;28;25070;-75
2022/09/09 09:26:46;;;;;;;6.43;2.38;;;17.60;99.90;;;;;;5050403;28;25055;-75
2022/09/09 09:29:18;;;;;;;3.67;1.90;;;17.50;99.90;;;;;;5066675;28;25105;-75
2022/09/09 09:31:52;;;;;;;7.57;2.53;;;17.50;99.90;;;;;;5058509;28;25075;-75
2022/09/09 09:34:17;;;;;;;10.98;2.10;;;17.60;99.90;;;;;;5059317;28;25068;-74
2022/09/09 09:36:55;;;;;;;7.70;2.65;;;17.70;99.90;;;;;;5061253;28;25072;-73
2022/09/09 09:39:48;;;;;;;12.45;1.90;;;17.60;99.90;;;;;;5060175;28;25172;-74
2022/09/09 09:42:16;;;;;;;5.47;1.75;;;17.60;99.90;;;;;;5051992;28;25053;-75
2022/09/09 09:44:44;;;;;;;12.73;2.30;;;17.60;99.90;;;;;;5048935;28;25089;-74
2022/09/09 09:47:14;;;;;;;7.30;1.92;;;17.70;99.90;;;;;;5060542;28;25087;-74
2022/09/09 09:49:55;;;;;;;8.20;2.70;;;17.70;99.90;;;;;;5058520;28;25172;-74
2022/09/09 09:52:28;;;;;;;8.32;3.45;;;17.70;99.90;;;;;;5056775;28;25052;-76
2022/09/09 09:54:55;;;;;;;8.90;1.65;;;17.70;99.90;;;;;;5054167;28;25135;-75
2022/09/09 09:57:28;;;;;;;3.88;1.60;;;17.80;99.90;;;;;;5061666;28;25105;-75
2022/09/09 10:00:22;;;;;;;11.38;2.58;;;17.80;99.90;;;;;;5057576;28;25079;-76
2022/09/09 10:02:48;;;;;;;5.15;2.03;;;17.90;99.90;;;;;;5048250;28;25093;-76
2022/09/09 10:05:19;;;;;;;14.43;3.08;;;17.90;99.90;;;;;;5060058;28;25099;-73
2022/09/09 10:07:46;;;;;;;9.43;2.10;;;17.90;99.90;;;;;;5062817;28;25154;-79
2022/09/09 10:10:32;;;;;;;8.52;2.00;;;18.10;99.90;;;;;;5066903;28;25133;-78
2022/09/09 10:13:13;;;;;;;9.00;2.35;;;18.30;99.90;;;;;;5070260;28;25139;-77
2022/09/09 10:15:53;;;;;;;10.38;2.45;;;18.20;99.90;;;;;;5058952;28;25054;-80
2022/09/09 10:18:52;;;;;;;5.78;2.03;;;18.10;99.90;;;;;;5060560;28;25070;-77
2022/09/09 10:21:51;;;;;;;4.50;2.15;;;18.10;99.90;;;;;;5070887;28;25056;-76
2022/09/09 10:24:52;;;;;;;5.72;2.85;;;18.10;99.90;;;;;;5058970;28;25074;-75
2022/09/09 10:27:26;;;;;;;6.25;1.75;;;18.20;99.90;;;;;;5068695;28;25137;-74
2022/09/09 10:30:08;;;;;;;9.68;2.22;;;18.00;99.90;;;;;;5070687;28;25080;-75
2022/09/09 10:33:01;;;;;;;10.93;2.13;;;17.90;99.90;;;;;;5068742;28;25140;-76
2022/09/09 10:35:36;;;;;;;;;;;17.90;99.90;;;;;;5070877;28;25049;-75
2022/09/09 10:38:11;;;;;;;9.48;3.75;;;17.90;99.90;;;;;;5062814;28;25084;-74
2022/09/09 10:40:58;;;;;;;5.88;3.00;;;18.00;99.90;;;;;;5056013;28;25184;-73
2022/09/09 10:43:38;;;;;;;9.73;3.15;;;18.00;99.90;;;;;;5063796;28;25104;-72
2022/09/09 10:46:28;;;;;;;8.13;2.58;;;17.90;99.90;;;;;;5056577;28;25072;-73
2022/09/09 10:49:09;;;;;;;10.18;3.20;;;17.70;99.90;;;;;;5053697;28;25105;-73
2022/09/09 10:51:45;;;;;;;13.43;3.33;;;17.80;99.90;;;;;;5050189;28;25138;-72
2022/09/09 10:54:42;;;;;;;9.13;3.60;;;17.80;99.90;;;;;;5060798;28;25095;-73
2022/09/09 10:57:25;;;;;;;6.03;3.42;;;17.80;99.90;;;;;;5057022;28;25088;-73
2022/09/09 10:59:57;;;;;;;6.90;3.20;;;17.90;99.90;;;;;;5065520;28;25125;-74
2022/09/09 11:02:22;;;;;;;8.85;3.10;;;17.90;99.90;;;;;;5062663;28;25053;-73
2022/09/09 11:05:13;;;;;;;8.50;2.83;;;18.00;99.90;;;;;;5052845;28;25082;-74
2022/09/09 11:07:55;;;;;;;8.75;3.92;;;18.00;99.90;;;;;;5065919;28;25124;-73
2022/09/09 11:10:24;;;;;;;6.60;3.08;;;18.10;99.90;;;;;;5055435;28;25150;-73
2022/09/09 11:12:53;;;;;;;8.98;3.17;;;18.30;99.90;;;;;;5058632;28;25078;-74
2022/09/09 11:15:25;;;;;;;5.80;3.03;;;18.50;99.90;;;;;;5074430;28;25067;-73
2022/09/09 11:17:58;;;;;;;8.57;3.40;;;18.70;99.90;;;;;;5058940;28;25107;-75
2022/09/09 11:20:25;;;;;;;;;;;19.00;99.90;;;;;;5060016;28;25009;-73
2022/09/09 11:23:24;;;;;;;5.72;3.75;;;19.20;99.90;;;;;;5059686;28;24100;-75
2022/09/09 11:26:07;;;;;;;7.75;4.20;;;19.00;99.90;;;;;;5051636;28;25070;-77
2022/09/09 11:29:02;;;;;;;11.30;3.47;;;19.10;99.90;;;;;;5056120;28;25064;-77
2022/09/09 11:31:57;;;;;;;9.75;4.63;;;19.10;99.90;;;;;;5053649;28;25060;-75
2022/09/09 11:34:40;;;;;;;10.90;3.88;;;19.40;99.90;;;;;;5049837;28;25111;-76
2022/09/09 11:37:38;;;;;;;7.88;2.80;;;19.40;99.90;;;;;;5059808;28;25066;-77
2022/09/09 11:40:23;;;;;;;8.75;2.97;;;19.20;99.90;;;;;;5053281;28;25080;-75
2022/09/09 11:42:59;;;;;;;5.00;2.70;;;19.00;99.90;;;;;;5047470;28;25076;-76
2022/09/09 11:45:28;;;;;;;6.10;3.17;;;19.60;99.90;;;;;;5056009;28;25059;-74
2022/09/09 11:47:59;;;;;;;8.80;2.80;;;19.50;99.90;;;;;;5054818;28;25119;-75
2022/09/09 11:50:24;;;;;;;9.10;2.97;;;19.50;99.90;;;;;;5056793;28;25071;-76
2022/09/09 11:52:51;;;;;;;4.90;2.50;;;19.40;99.90;;;;;;5058795;28;25159;-74
2022/09/09 11:55:32;;;;;;;7.78;2.83;;;19.70;99.90;;;;;;5056564;28;25055;-74
2022/09/09 11:58:10;;;;;;;6.75;3.45;;;19.50;99.90;;;;;;5052099;28;25082;-77
2022/09/09 12:00:46;;;;;;;7.15;2.85;;;19.70;99.90;;;;;;5055047;28;25069;-74
2022/09/09 12:03:52;;;;;;;8.43;3.40;;;19.40;99.90;;;;;;5053478;28;25056;-75
2022/09/09 12:06:42;;;;;;;7.00;2.47;;;19.10;99.90;;;;;;5060809;28;25060;-75
2022/09/09 12:09:23;;;;;;;11.57;3.42;;;19.10;99.90;;;;;;5060152;28;25100;-75
2022/09/09 12:11:49;;;;;;;3.17;2.67;;;18.80;99.90;;;;;;5062230;28;25146;-75
2022/09/09 12:14:34;;;;;;;6.13;2.75;;;18.50;99.90;;;;;;5063618;28;25065;-76
2022/09/09 12:17:15;;;;;;;9.95;2.90;;;18.50;99.90;;;;;;5051140;28;25063;-73
2022/09/09 12:19:41;;;;;;;5.15;2.83;;;18.50;99.90;;;;;;5050342;28;25072;-74
2022/09/09 12:22:26;;;;;;;7.07;3.60;;;18.40;99.90;;;;;;5050006;28;25084;-77
2022/09/09 12:25:35;;;;;;;6.57;3.05;;;18.40;99.90;;;;;;5057873;28;25070;-75
2022/09/09 12:28:10;;;;;;;4.10;2.80;;;18.60;99.90;;;;;;5063255;28;25107;-76
2022/09/09 12:31:00;;;;;;;7.55;2.90;;;18.50;99.90;;;;;;5055739;28;25056;-72
2022/09/09 12:33:34;;;;;;;8.40;3.00;;;18.40;99.90;;;;;;5050068;28;25069;-74
2022/09/09 12:36:01;;;;;;;6.85;2.97;;;18.40;99.90;;;;;;5055177;28;25136;-74
2022/09/09 12:38:39;;;;;;;6.38;3.03;;;18.40;99.90;;;;;;5063682;28;25098;-75
2022/09/09 12:41:05;;;;;;;7.65;3.83;;;18.60;99.90;;;;;;5060030;28;25088;-73
2022/09/09 12:43:31;;;;;;;3.72;2.45;;;18.70;99.90;;;;;;5057110;28;25148;-72
2022/09/09 12:46:03;;;;;;;4.85;3.17;;;18.70;99.90;;;;;;5058896;28;25075;-74
2022/09/09 12:48:40;;;;;;;8.38;2.95;;;18.70;99.90;;;;;;5052830;28;25070;-75
2022/09/09 12:51:28;;;;;;;5.85;2.72;;;18.60;99.90;;;;;;5048504;28;25069;-74
2022/09/09 12:53:55;;;;;;;5.63;2.53;;;18.70;99.90;;;;;;5049130;28;25061;-73
2022/09/09 12:56:26;;;;;;;4.65;2.60;;;18.60;99.90;;;;;;5050514;28;25075;-72
2022/09/09 12:58:53;;;;;;;10.00;3.50;;;18.70;99.90;;;;;;5054769;28;25113;-74
2022/09/09 13:01:28;;;;;;;7.53;2.97;;;18.80;99.90;;;;;;5062227;28;25078;-74
2022/09/09 13:03:55;;;;;;;9.70;3.03;;;18.80;99.90;;;;;;5061756;28;25104;-73
2022/09/09 13:06:26;;;;;;;6.40;2.80;;;18.80;99.90;;;;;;5061017;28;25059;-74
2022/09/09 13:08:53;;;;;;;8.02;2.78;;;18.90;99.90;;;;;;5060774;28;25103;-74
2022/09/09 13:11:46;;;;;;;6.38;3.17;;;18.80;99.90;;;;;;5056253;28;25054;-74
2022/09/09 13:14:20;;;;;;;3.85;2.20;;;19.00;99.90;;;;;;5065576;28;25150;-72